Time;durP1;ratioP1;P1;durP2;ratioP2;P2;SDS_P1;SDS_P2;PMS_P1;PMS_P2;Temp;Humidity;BMP_temperature;BMP_pressure;BME280_temperature;BME280_humidity;BME280_pressure;Samples;Min_cycle;Max_cycle;Signal;HPM_P1;HPM_P2
2024/01/27 00:00:15;;;;;;;;;1.00;1.00;;;;;19.10;53.99;100839.15;34562;1268;19540;-70
2024/01/27 00:01:18;;;;;;;;;1.00;1.00;;;;;19.10;54.03;100839.48;34554;1268;22312;-70
2024/01/27 00:02:06;;;;;;;;;3.00;1.50;;;;;19.10;54.06;100843.83;34523;1268;19447;-70
2024/01/27 00:02:53;;;;;;;;;1.00;1.00;;;;;19.09;54.09;100842.45;34578;1260;19374;-70
2024/01/27 00:03:41;;;;;;;;;1.00;1.00;;;;;19.09;53.99;100844.09;34515;1252;22103;-70
2024/01/27 00:04:28;;;;;;;;;2.00;2.00;;;;;19.09;54.17;100845.66;34585;1267;19291;-70
2024/01/27 00:05:16;;;;;;;;;4.00;2.00;;;;;19.13;54.12;100846.35;34535;1268;21919;-70
2024/01/27 00:06:03;;;;;;;;;1.00;1.00;;;;;19.18;54.47;100837.27;34597;1268;19376;-70
2024/01/27 00:06:50;;;;;;;;;1.50;1.00;;;;;19.16;54.23;100842.41;34532;1268;20832;-71
2024/01/27 00:07:38;;;;;;;;;1.00;1.00;;;;;19.14;54.13;100849.78;34568;1267;20698;-71
2024/01/27 00:08:26;;;;;;;;;1.00;1.00;;;;;19.14;54.00;100838.10;34547;1253;20781;-71
2024/01/27 00:09:13;;;;;;;;;1.00;1.00;;;;;19.12;54.02;100840.41;34596;1268;19450;-71
2024/01/27 00:10:01;;;;;;;;;1.50;1.00;;;;;19.12;54.08;100844.65;34518;1252;20727;-71
2024/01/27 00:10:48;;;;;;;;;1.00;1.00;;;;;19.11;54.09;100836.77;34569;1254;20696;-71
2024/01/27 00:11:35;;;;;;;;;1.00;1.00;;;;;19.10;54.09;100838.50;34523;1268;20702;-71
2024/01/27 00:12:23;;;;;;;;;1.00;1.00;;;;;19.10;54.27;100839.48;34600;1268;20593;-71
2024/01/27 00:13:10;;;;;;;;;1.00;1.00;;;;;19.12;54.19;100842.15;34544;1268;21803;-71
2024/01/27 00:13:59;;;;;;;;;1.33;1.33;;;;;19.14;54.06;100844.36;34591;1268;20763;-70
2024/01/27 00:14:46;;;;;;;;;1.00;1.00;;;;;19.16;54.42;100845.30;34512;1268;21171;-70
2024/01/27 00:15:33;;;;;;;;;1.00;1.00;;;;;19.14;54.37;100843.64;34591;1260;19380;-71
2024/01/27 00:16:21;;;;;;;;;2.00;2.00;;;;;19.13;54.34;100844.50;34537;1268;21823;-71
2024/01/27 00:17:08;;;;;;;;;2.00;2.00;;;;;19.12;54.28;100845.58;34576;1268;19783;-71
2024/01/27 00:17:56;;;;;;;;;1.00;1.00;;;;;19.12;54.19;100846.72;34524;1268;19583;-71
2024/01/27 00:18:43;;;;;;;;;1.00;1.00;;;;;19.11;54.27;100844.70;34596;1252;20705;-70
2024/01/27 00:19:31;;;;;;;;;1.00;1.00;;;;;19.11;54.35;100845.67;34532;1268;19348;-70
2024/01/27 00:20:18;;;;;;;;;2.00;2.00;;;;;19.10;54.11;100844.14;34589;1268;19213;-70
2024/01/27 00:21:05;;;;;;;;;1.00;1.00;;;;;19.09;54.31;100847.77;34567;1252;19386;-70
2024/01/27 00:21:53;;;;;;;;;1.00;1.00;;;;;19.09;54.36;100847.34;34609;1253;20672;-70
2024/01/27 00:22:40;;;;;;;;;1.00;1.00;;;;;19.10;54.22;100849.85;34564;1268;21026;-71
2024/01/27 00:23:27;;;;;;;;;2.00;1.00;;;;;19.09;54.23;100850.93;34606;1267;19375;-71
2024/01/27 00:24:15;;;;;;;;;1.00;1.00;;;;;19.08;54.13;100852.81;34562;1253;20787;-69
2024/01/27 00:25:03;;;;;;;;;2.00;2.00;;;;;19.08;54.17;100851.23;34608;1268;20752;-70
2024/01/27 00:25:50;;;;;;;;;4.00;1.00;;;;;19.08;54.35;100852.15;34562;1253;21036;-70
2024/01/27 00:26:38;;;;;;;;;1.00;1.00;;;;;19.07;54.26;100850.58;34604;1268;21209;-71
2024/01/27 00:27:25;;;;;;;;;1.00;1.00;;;;;19.08;54.14;100858.84;34564;1260;20734;-71
2024/01/27 00:28:13;;;;;;;;;1.00;1.00;;;;;19.08;54.19;100852.55;34601;1268;20643;-70
2024/01/27 00:29:00;;;;;;;;;1.00;1.00;;;;;19.08;54.13;100850.05;34577;1252;20744;-70
2024/01/27 00:29:47;;;;;;;;;1.00;1.00;;;;;19.08;54.10;100849.77;34602;1268;20711;-71
2024/01/27 00:30:35;;;;;;;;;1.25;1.25;;;;;19.07;54.12;100855.09;34541;1268;20801;-70
2024/01/27 00:31:22;;;;;;;;;2.00;1.00;;;;;19.07;54.14;100857.64;34525;1267;20700;-70
2024/01/27 00:32:10;;;;;;;;;1.00;1.00;;;;;19.06;54.07;100850.30;34578;1267;20704;-70
2024/01/27 00:32:57;;;;;;;;;1.00;1.00;;;;;19.06;54.24;100853.83;34510;1268;19378;-70
2024/01/27 00:33:45;;;;;;;;;1.00;1.00;;;;;19.06;54.10;100854.53;34594;1252;20840;-70
2024/01/27 00:34:32;;;;;;;;;1.00;1.00;;;;;19.06;54.16;100855.02;34519;1268;19366;-70
2024/01/27 00:35:19;;;;;;;;;1.00;1.00;;;;;19.05;54.22;100856.53;34584;1267;20751;-70
2024/01/27 00:36:07;;;;;;;;;1.00;1.00;;;;;19.06;54.25;100853.39;34530;1268;20558;-70
2024/01/27 00:36:54;;;;;;;;;4.00;2.00;;;;;19.06;53.96;100852.58;34596;1252;20785;-69
2024/01/27 00:37:42;;;;;;;;;1.75;1.00;;;;;19.09;53.67;100850.48;34525;1268;22109;-70
2024/01/27 00:38:29;;;;;;;;;2.00;1.00;;;;;19.11;53.63;100852.73;34598;1260;20718;-70
2024/01/27 00:39:16;;;;;;;;;1.33;1.00;;;;;19.13;53.55;100858.78;34517;1253;22049;-70
2024/01/27 00:40:04;;;;;;;;;1.50;1.00;;;;;19.15;53.37;100862.44;34580;1268;20667;-70
2024/01/27 00:40:53;;;;;;;;;1.00;1.00;;;;;19.16;53.21;100858.98;34516;1268;20860;-70
2024/01/27 00:41:40;;;;;;;;;1.00;1.00;;;;;19.17;53.30;100858.11;34580;1256;20704;-70
2024/01/27 00:42:27;;;;;;;;;1.00;1.00;;;;;19.17;53.07;100856.33;34535;1268;19348;-70
2024/01/27 00:43:15;;;;;;;;;1.50;1.50;;;;;19.18;53.10;100858.50;34585;1253;20769;-70
2024/01/27 00:44:02;;;;;;;;;1.00;1.00;;;;;19.21;53.21;100862.66;34542;1253;22335;-70
2024/01/27 00:44:50;;;;;;;;;1.00;1.00;;;;;19.20;52.91;100858.20;34585;1268;19386;-70
2024/01/27 00:45:37;;;;;;;;;1.00;1.00;;;;;19.21;52.97;100857.34;34530;1253;20705;-70
2024/01/27 00:46:25;;;;;;;;;2.00;1.00;;;;;19.22;52.75;100856.27;34579;1268;20875;-70
2024/01/27 00:47:12;;;;;;;;;2.00;1.00;;;;;19.23;52.73;100858.12;34551;1266;21071;-70
2024/01/27 00:47:59;;;;;;;;;1.00;1.00;;;;;19.22;52.87;100861.32;34615;1253;20802;-70
2024/01/27 00:48:47;;;;;;;;;2.00;2.00;;;;;19.23;52.75;100855.57;34541;1259;19777;-69
2024/01/27 00:49:34;;;;;;;;;1.00;1.00;;;;;19.23;52.77;100859.15;34630;1253;20794;-70
2024/01/27 00:50:22;;;;;;;;;1.00;1.00;;;;;19.23;52.80;100862.79;34542;1267;20689;-70
2024/01/27 00:51:09;;;;;;;;;1.00;1.00;;;;;19.23;52.61;100864.09;34638;1253;19745;-70
2024/01/27 00:51:56;;;;;;;;;2.00;2.00;;;;;19.22;52.70;100861.48;34523;1267;21708;-70
2024/01/27 00:52:44;;;;;;;;;2.00;1.00;;;;;19.22;52.60;100864.41;34621;1267;20681;-70
2024/01/27 00:53:31;;;;;;;;;1.00;1.00;;;;;19.22;52.60;100861.91;34549;1260;19352;-70
2024/01/27 00:54:19;;;;;;;;;1.00;1.00;;;;;19.22;52.62;100861.75;34569;1266;19732;-70
2024/01/27 00:55:06;;;;;;;;;1.00;1.00;;;;;19.21;52.67;100861.25;34564;1267;19377;-70
2024/01/27 00:55:53;;;;;;;;;1.00;1.00;;;;;19.20;52.67;100860.05;34525;1253;20808;-70
2024/01/27 00:56:41;;;;;;;;;1.00;1.00;;;;;19.19;52.77;100863.02;34550;1267;21862;-70
2024/01/27 00:57:28;;;;;;;;;1.00;1.00;;;;;19.19;52.55;100860.36;34538;1267;20713;-70
2024/01/27 00:58:16;;;;;;;;;1.00;1.00;;;;;19.19;52.55;100857.70;34568;1252;20819;-70
2024/01/27 00:59:03;;;;;;;;;1.00;1.00;;;;;19.18;52.55;100858.23;34545;1267;20730;-70
2024/01/27 00:59:50;;;;;;;;;1.00;1.00;;;;;19.17;52.53;100862.79;34594;1267;19235;-71
2024/01/27 01:00:38;;;;;;;;;2.00;2.00;;;;;19.16;52.54;100859.45;34548;1266;20710;-70
2024/01/27 01:01:25;;;;;;;;;1.00;1.00;;;;;19.16;52.66;100852.24;34575;1267;20710;-70
2024/01/27 01:02:13;;;;;;;;;1.00;1.00;;;;;19.15;52.76;100853.43;34560;1267;19564;-70
2024/01/27 01:03:00;;;;;;;;;1.00;1.00;;;;;19.15;52.52;100855.70;34598;1259;20719;-70
2024/01/27 01:03:48;;;;;;;;;1.00;1.00;;;;;19.14;52.69;100854.89;34571;1251;20724;-70
2024/01/27 01:04:35;;;;;;;;;2.00;2.00;;;;;19.13;52.77;100857.70;34571;1266;20720;-70
2024/01/27 01:05:23;;;;;;;;;1.00;1.00;;;;;19.14;52.86;100852.82;34581;1267;20703;-70
2024/01/27 01:06:10;;;;;;;;;1.00;1.00;;;;;19.14;52.87;100845.33;34592;1267;20718;-70
2024/01/27 01:06:57;;;;;;;;;1.00;1.00;;;;;19.13;52.83;100846.99;34569;1267;20672;-69
2024/01/27 01:07:45;;;;;;;;;1.00;1.00;;;;;19.13;53.05;100846.99;34612;1267;20537;-70
2024/01/27 01:08:32;;;;;;;;;1.50;1.00;;;;;19.12;53.03;100845.36;34551;1266;19339;-70
2024/01/27 01:09:20;;;;;;;;;4.00;1.25;;;;;19.11;53.17;100849.14;34603;1267;20943;-70
2024/01/27 01:10:07;;;;;;;;;1.00;1.00;;;;;19.11;53.20;100847.14;34545;1267;19688;-70
2024/01/27 01:10:55;;;;;;;;;2.00;1.00;;;;;19.11;52.99;100848.06;34600;1266;20751;-70
2024/01/27 01:11:42;;;;;;;;;1.00;1.00;;;;;19.11;52.99;100855.49;34524;1253;20731;-70
2024/01/27 01:12:29;;;;;;;;;2.00;1.00;;;;;19.10;52.97;100850.88;34615;1267;19350;-70
2024/01/27 01:13:17;;;;;;;;;1.00;1.00;;;;;19.10;53.15;100849.63;34532;1267;19452;-70
2024/01/27 01:14:04;;;;;;;;;1.00;1.00;;;;;19.11;53.19;100852.62;34527;1267;21051;-70
2024/01/27 01:14:52;;;;;;;;;1.00;1.00;;;;;19.11;52.94;100848.71;34528;1267;19456;-70
2024/01/27 01:15:40;;;;;;;;;1.00;1.00;;;;;19.11;53.03;100848.77;34528;1267;20672;-70
2024/01/27 01:16:27;;;;;;;;;1.00;1.00;;;;;19.10;53.13;100849.04;34524;1254;21455;-70
2024/01/27 01:17:14;;;;;;;;;2.00;1.00;;;;;19.10;53.18;100848.27;34517;1267;20727;-70
2024/01/27 01:18:02;;;;;;;;;1.00;1.00;;;;;19.09;53.11;100845.55;34544;1251;21011;-70
2024/01/27 01:18:49;;;;;;;;;1.00;1.00;;;;;19.09;53.14;100848.81;34535;1267;20719;-70
2024/01/27 01:19:37;;;;;;;;;1.00;1.00;;;;;19.09;52.96;100845.67;34542;1251;20760;-70
2024/01/27 01:20:25;;;;;;;;;1.00;1.00;;;;;19.09;53.14;100852.55;34563;1267;19335;-70
2024/01/27 01:21:13;;;;;;;;;1.00;1.00;;;;;19.09;53.03;100847.40;34577;1267;20828;-70
2024/01/27 01:22:00;;;;;;;;;1.00;1.00;;;;;19.09;53.17;100845.33;34603;1267;19350;-70
2024/01/27 01:22:48;;;;;;;;;1.00;1.00;;;;;19.09;53.01;100852.02;34578;1266;20736;-70
2024/01/27 01:23:35;;;;;;;;;1.00;1.00;;;;;19.10;53.08;100851.75;34603;1267;19271;-70
2024/01/27 01:24:23;;;;;;;;;;;;;;;19.09;52.87;100845.27;34584;1266;19905;-70
2024/01/27 01:25:10;;;;;;;;;1.50;1.50;;;;;19.09;53.02;100848.15;34598;1267;20322;-70
2024/01/27 01:25:58;;;;;;;;;1.00;1.00;;;;;19.09;53.31;100851.41;34581;1267;19464;-70
2024/01/27 01:26:45;;;;;;;;;1.00;1.00;;;;;19.09;53.02;100853.42;34532;1267;20681;-71
2024/01/27 01:27:32;;;;;;;;;2.00;2.00;;;;;19.09;53.13;100850.88;34536;1267;20704;-70
2024/01/27 01:28:20;;;;;;;;;1.00;1.00;;;;;19.08;52.84;100852.71;34544;1259;20706;-70
2024/01/27 01:29:07;;;;;;;;;1.00;1.00;;;;;19.08;53.07;100856.02;34528;1253;20928;-70
2024/01/27 01:29:55;;;;;;;;;1.00;1.00;;;;;19.07;52.99;100853.67;34554;1251;20724;-70
2024/01/27 01:30:42;;;;;;;;;1.00;1.00;;;;;19.08;53.05;100858.67;34530;1267;19326;-70
2024/01/27 01:31:29;;;;;;;;;1.00;1.00;;;;;19.08;53.04;100861.71;34575;1251;19270;-70
2024/01/27 01:32:17;;;;;;;;;1.00;1.00;;;;;19.08;53.00;100858.08;34541;1267;19432;-70
2024/01/27 01:33:04;;;;;;;;;1.00;1.00;;;;;19.07;52.90;100857.15;34571;1267;21770;-70
2024/01/27 01:33:52;;;;;;;;;1.00;1.00;;;;;19.07;53.12;100853.52;34550;1267;20862;-71
2024/01/27 01:34:39;;;;;;;;;1.00;1.00;;;;;19.07;53.02;100855.52;34585;1267;19351;-71
2024/01/27 01:35:26;;;;;;;;;1.50;1.50;;;;;19.06;53.05;100857.41;34556;1267;20717;-71
2024/01/27 01:36:14;;;;;;;;;1.00;1.00;;;;;19.07;53.12;100859.52;34586;1251;20803;-70
2024/01/27 01:37:01;;;;;;;;;2.00;2.00;;;;;19.06;53.05;100855.88;34576;1251;19645;-70
2024/01/27 01:37:50;;;;;;;;;1.00;1.00;;;;;19.06;53.01;100857.63;34586;1266;19424;-71
2024/01/27 01:38:37;;;;;;;;;1.00;1.00;;;;;19.06;52.81;100853.66;34532;1267;21188;-70
2024/01/27 01:39:25;;;;;;;;;1.00;1.00;;;;;19.06;53.21;100851.91;34551;1267;20618;-71
2024/01/27 01:40:12;;;;;;;;;2.00;1.00;;;;;19.06;53.13;100854.64;34523;1267;20949;-71
2024/01/27 01:40:59;;;;;;;;;2.00;2.00;;;;;19.06;53.07;100850.20;34554;1267;19344;-70
2024/01/27 01:41:47;;;;;;;;;2.00;1.00;;;;;19.06;52.98;100851.27;34539;1251;20937;-70
2024/01/27 01:42:34;;;;;;;;;1.00;1.00;;;;;19.06;53.09;100851.71;34566;1268;20714;-71
2024/01/27 01:43:22;;;;;;;;;1.00;1.00;;;;;19.06;52.92;100847.64;34534;1253;20969;-71
2024/01/27 01:44:09;;;;;;;;;1.00;1.00;;;;;19.06;53.21;100851.70;34563;1268;19338;-71
2024/01/27 01:44:57;;;;;;;;;1.00;1.00;;;;;19.06;52.97;100848.94;34537;1267;19343;-70
2024/01/27 01:45:44;;;;;;;;;1.00;1.00;;;;;19.05;53.07;100846.16;34575;1268;20686;-71
2024/01/27 01:46:32;;;;;;;;;1.00;1.00;;;;;19.05;53.05;100846.71;34546;1268;21076;-71
2024/01/27 01:47:19;;;;;;;;;2.00;2.00;;;;;19.06;53.04;100846.88;34597;1253;19205;-70
2024/01/27 01:48:07;;;;;;;;;1.00;1.00;;;;;19.06;53.02;100853.05;34547;1253;21018;-70
2024/01/27 01:48:54;;;;;;;;;1.00;1.00;;;;;19.05;53.17;100847.41;34611;1262;19372;-71
2024/01/27 01:49:41;;;;;;;;;1.00;1.00;;;;;19.04;53.22;100843.98;34556;1268;19524;-70
2024/01/27 01:50:29;;;;;;;;;1.00;1.00;;;;;19.05;53.10;100849.03;34562;1268;20764;-70
2024/01/27 01:51:16;;;;;;;;;1.00;1.00;;;;;19.04;52.96;100851.41;34547;1252;22105;-71
2024/01/27 01:52:04;;;;;;;;;1.00;1.00;;;;;19.04;52.72;100854.99;34563;1268;21820;-71
2024/01/27 01:52:52;;;;;;;;;1.00;1.00;;;;;19.05;52.99;100852.95;34530;1268;20682;-71
2024/01/27 01:53:40;;;;;;;;;1.00;1.00;;;;;19.05;53.07;100845.94;34562;1268;21044;-71
2024/01/27 01:54:28;;;;;;;;;1.00;1.00;;;;;19.05;52.72;100853.27;34523;1268;20686;-71
2024/01/27 01:55:16;;;;;;;;;1.00;1.00;;;;;19.04;52.93;100853.64;34541;1268;20587;-71
2024/01/27 01:56:04;;;;;;;;;1.50;1.50;;;;;19.04;53.29;100852.98;34592;1268;19334;-71
2024/01/27 01:56:51;;;;;;;;;1.00;1.00;;;;;19.03;53.19;100853.63;34532;1267;20739;-70
2024/01/27 01:57:38;;;;;;;;;2.00;2.00;;;;;19.03;53.22;100852.77;34557;1267;19549;-71
2024/01/27 01:58:26;;;;;;;;;2.00;2.00;;;;;19.03;53.03;100852.27;34550;1267;20761;-71
2024/01/27 01:59:14;;;;;;;;;1.00;1.00;;;;;19.03;53.20;100856.40;34621;1252;22033;-71
2024/01/27 02:00:01;;;;;;;;;1.33;1.33;;;;;19.03;53.00;100852.77;34531;1253;20842;-71
2024/01/27 02:00:49;;;;;;;;;1.00;1.00;;;;;19.03;52.82;100854.93;34574;1253;22355;-71
2024/01/27 02:01:36;;;;;;;;;1.50;1.00;;;;;19.02;52.84;100855.75;34532;1268;20735;-71
2024/01/27 02:02:24;;;;;;;;;1.00;1.00;;;;;19.02;52.89;100849.06;34583;1268;20709;-70
2024/01/27 02:03:11;;;;;;;;;1.00;1.00;;;;;19.02;52.91;100846.52;34528;1268;20923;-71
2024/01/27 02:03:59;;;;;;;;;1.00;1.00;;;;;19.03;52.94;100852.55;34578;1253;20770;-71
2024/01/27 02:04:46;;;;;;;;;1.50;1.00;;;;;19.02;52.77;100847.81;34544;1252;21096;-71
2024/01/27 02:05:34;;;;;;;;;2.00;1.00;;;;;19.01;52.62;100848.52;34595;1252;20868;-71
2024/01/27 02:06:21;;;;;;;;;1.00;1.00;;;;;19.01;52.50;100845.09;34537;1268;20759;-71
2024/01/27 02:07:09;;;;;;;;;1.00;1.00;;;;;19.01;52.59;100845.52;34585;1253;20913;-71
2024/01/27 02:07:59;;;;;;;;;1.00;1.00;;;;;19.01;52.50;100846.66;34545;1268;21778;-71
2024/01/27 02:08:47;;;;;;;;;1.00;1.00;;;;;19.01;52.50;100856.27;34522;1268;19398;-71
2024/01/27 02:09:34;;;;;;;;;1.00;1.00;;;;;19.04;52.15;100850.60;34618;1268;19379;-71
2024/01/27 02:10:22;;;;;;;;;2.00;1.00;;;;;19.06;52.10;100849.16;34530;1268;19368;-71
2024/01/27 02:11:09;;;;;;;;;1.00;1.00;;;;;19.08;52.02;100851.39;34618;1252;20633;-71
2024/01/27 02:11:56;;;;;;;;;1.00;1.00;;;;;19.10;51.54;100848.54;34535;1267;21003;-71
2024/01/27 02:12:44;;;;;;;;;2.00;1.00;;;;;19.11;51.50;100846.77;34616;1268;20674;-71
2024/01/27 02:13:31;;;;;;;;;1.00;1.00;;;;;19.12;51.48;100843.35;34544;1268;21070;-71
2024/01/27 02:14:19;;;;;;;;;1.50;1.50;;;;;19.14;51.45;100842.23;34587;1268;20730;-72
2024/01/27 02:15:06;;;;;;;;;1.50;1.50;;;;;19.15;51.37;100843.48;34560;1252;19566;-71
2024/01/27 02:15:54;;;;;;;;;1.00;1.00;;;;;19.16;51.26;100841.21;34584;1268;20636;-71
2024/01/27 02:16:41;;;;;;;;;1.00;1.00;;;;;19.18;51.18;100843.79;34581;1268;19352;-71
2024/01/27 02:17:28;;;;;;;;;1.00;1.00;;;;;19.19;51.02;100845.96;34570;1253;20738;-71
2024/01/27 02:18:16;;;;;;;;;1.00;1.00;;;;;19.19;51.16;100840.48;34563;1268;21856;-71
2024/01/27 02:19:03;;;;;;;;;4.00;4.00;;;;;19.20;51.09;100837.56;34512;1254;20638;-71
2024/01/27 02:19:51;;;;;;;;;1.00;1.00;;;;;19.20;51.15;100835.98;34576;1268;20700;-70
2024/01/27 02:20:38;;;;;;;;;1.00;1.00;;;;;19.20;50.93;100833.70;34523;1268;22732;-70
2024/01/27 02:21:26;;;;;;;;;1.00;1.00;;;;;19.20;50.90;100831.43;34579;1268;20819;-70
2024/01/27 02:22:13;;;;;;;;;1.00;1.00;;;;;19.19;51.04;100830.11;34507;1268;21063;-70
2024/01/27 02:23:03;;;;;;;;;1.00;1.00;;;;;19.20;50.94;100836.42;34577;1268;20716;-70
2024/01/27 02:23:51;;;;;;;;;1.50;1.00;;;;;19.19;50.84;100836.36;34554;1267;21254;-70
2024/01/27 02:24:38;;;;;;;;;1.00;1.00;;;;;19.18;50.80;100835.70;34517;1268;20667;-71
2024/01/27 02:25:25;;;;;;;;;1.00;1.00;;;;;19.18;50.86;100830.65;34594;1252;20843;-71
2024/01/27 02:26:13;;;;;;;;;1.00;1.00;;;;;19.17;50.75;100831.77;34526;1268;19791;-70
2024/01/27 02:27:00;;;;;;;;;1.00;1.00;;;;;19.16;50.95;100829.16;34587;1268;19235;-70
2024/01/27 02:27:48;;;;;;;;;1.00;1.00;;;;;19.16;50.90;100833.52;34523;1268;19349;-71
2024/01/27 02:28:35;;;;;;;;;1.00;1.00;;;;;19.15;50.76;100826.33;34603;1253;19315;-71
2024/01/27 02:29:23;;;;;;;;;1.00;1.00;;;;;19.15;51.08;100827.46;34524;1267;21121;-71
2024/01/27 02:30:10;;;;;;;;;1.00;1.00;;;;;19.15;50.78;100826.91;34607;1253;19340;-70
2024/01/27 02:30:59;;;;;;;;;1.00;1.00;;;;;19.14;50.82;100834.35;34487;1253;20740;-70
2024/01/27 02:31:46;;;;;;;;;1.00;1.00;;;;;19.13;50.86;100833.58;34505;1253;22032;-71
2024/01/27 02:32:34;;;;;;;;;1.00;1.00;;;;;19.12;50.86;100838.19;34543;1269;21048;-70
2024/01/27 02:33:21;;;;;;;;;1.00;1.00;;;;;19.12;50.70;100838.41;34505;1268;20669;-70
2024/01/27 02:34:09;;;;;;;;;1.00;1.00;;;;;19.12;50.84;100833.80;34582;1268;19338;-70
2024/01/27 02:34:56;;;;;;;;;1.50;1.50;;;;;19.11;50.86;100837.91;34538;1267;20631;-70
2024/01/27 02:35:44;;;;;;;;;1.00;1.00;;;;;19.10;50.94;100829.54;34571;1268;19361;-70
2024/01/27 02:36:31;;;;;;;;;1.33;1.00;;;;;19.09;51.14;100833.98;34570;1252;20729;-70
2024/01/27 02:37:18;;;;;;;;;1.00;1.00;;;;;19.09;51.00;100835.66;34562;1268;22551;-70
2024/01/27 02:38:06;;;;;;;;;1.00;1.00;;;;;19.08;50.95;100833.77;34564;1268;19351;-70
2024/01/27 02:38:53;;;;;;;;;1.00;1.00;;;;;19.08;50.90;100829.09;34520;1268;20710;-70
2024/01/27 02:39:41;;;;;;;;;1.00;1.00;;;;;19.08;51.09;100827.84;34571;1260;19365;-70
2024/01/27 02:40:28;;;;;;;;;1.00;1.00;;;;;19.07;51.28;100825.83;34533;1260;20773;-70
2024/01/27 02:41:16;;;;;;;;;1.00;1.00;;;;;19.07;51.32;100830.43;34583;1253;20842;-69
2024/01/27 02:42:03;;;;;;;;;2.00;2.00;;;;;19.07;51.45;100835.88;34527;1268;19356;-70
2024/01/27 02:42:50;;;;;;;;;1.00;1.00;;;;;19.08;51.43;100831.48;34566;1267;20868;-70
2024/01/27 02:43:38;;;;;;;;;1.00;1.00;;;;;19.07;51.60;100834.78;34562;1253;19374;-71
2024/01/27 02:44:25;;;;;;;;;1.00;1.00;;;;;19.07;51.51;100834.02;34602;1268;20792;-71
2024/01/27 02:45:13;;;;;;;;;1.00;1.00;;;;;19.06;51.44;100830.98;34544;1268;19474;-70
2024/01/27 02:46:00;;;;;;;;;2.00;2.00;;;;;19.06;51.68;100836.17;34615;1252;19304;-70
2024/01/27 02:46:47;;;;;;;;;1.00;1.00;;;;;19.06;51.56;100836.55;34551;1268;19520;-70
2024/01/27 02:47:35;;;;;;;;;1.00;1.00;;;;;19.06;51.58;100836.55;34613;1268;19363;-70
2024/01/27 02:48:22;;;;;;;;;1.00;1.00;;;;;19.06;51.62;100837.21;34570;1260;19389;-70
2024/01/27 02:49:10;;;;;;;;;1.00;1.00;;;;;19.06;51.55;100838.30;34599;1268;20658;-70
2024/01/27 02:49:57;;;;;;;;;1.00;1.00;;;;;19.05;51.50;100841.11;34535;1252;20811;-70
2024/01/27 02:50:45;;;;;;;;;1.00;1.00;;;;;19.05;51.60;100844.73;34609;1268;19277;-70
2024/01/27 02:51:32;;;;;;;;;1.00;1.00;;;;;19.05;51.56;100833.23;34529;1253;20786;-69
2024/01/27 02:52:19;;;;;;;;;1.33;1.33;;;;;19.04;51.65;100831.34;34587;1267;21977;-70
2024/01/27 02:53:07;;;;;;;;;1.00;1.00;;;;;19.05;51.57;100836.75;34521;1252;22032;-70
2024/01/27 02:53:54;;;;;;;;;1.00;1.00;;;;;19.04;51.46;100835.13;34609;1252;20713;-70
2024/01/27 02:54:42;;;;;;;;;1.00;1.00;;;;;19.04;51.44;100837.89;34537;1268;19298;-70
2024/01/27 02:55:29;;;;;;;;;2.00;1.00;;;;;19.05;51.52;100841.05;34564;1268;19355;-70
2024/01/27 02:56:16;;;;;;;;;2.00;2.00;;;;;19.05;51.55;100838.71;34537;1253;21243;-70
2024/01/27 02:57:04;;;;;;;;;1.00;1.00;;;;;19.04;51.60;100837.23;34514;1268;20710;-70
2024/01/27 02:57:51;;;;;;;;;1.00;1.00;;;;;19.04;51.55;100836.86;34559;1252;21877;-70
2024/01/27 02:58:39;;;;;;;;;1.00;1.00;;;;;19.04;51.63;100843.48;34522;1268;19200;-70
2024/01/27 02:59:26;;;;;;;;;1.00;1.00;;;;;19.04;51.42;100843.00;34565;1252;20742;-70
2024/01/27 03:00:13;;;;;;;;;1.00;1.00;;;;;19.04;51.61;100839.90;34538;1268;20682;-70
2024/01/27 03:01:01;;;;;;;;;1.00;1.00;;;;;19.04;51.43;100842.73;34557;1268;20805;-70
2024/01/27 03:01:48;;;;;;;;;1.50;1.00;;;;;19.04;51.56;100842.08;34523;1268;20726;-70
2024/01/27 03:02:36;;;;;;;;;1.33;1.00;;;;;19.04;51.51;100843.16;34572;1267;21052;-70
2024/01/27 03:03:23;;;;;;;;;1.00;1.00;;;;;19.04;51.56;100847.50;34539;1268;20674;-70
2024/01/27 03:04:11;;;;;;;;;1.00;1.00;;;;;19.03;51.66;100845.44;34595;1252;20718;-70
2024/01/27 03:04:58;;;;;;;;;1.00;1.00;;;;;19.03;51.57;100849.45;34557;1268;20690;-70
2024/01/27 03:05:45;;;;;;;;;1.00;1.00;;;;;19.02;51.53;100845.64;34592;1252;20767;-70
2024/01/27 03:06:33;;;;;;;;;1.00;1.00;;;;;19.02;51.62;100851.99;34565;1268;20600;-69
2024/01/27 03:07:20;;;;;;;;;1.00;1.00;;;;;19.03;51.65;100849.84;34595;1253;21105;-70
2024/01/27 03:08:08;;;;;;;;;1.00;1.00;;;;;19.02;51.65;100848.64;34560;1268;19286;-70
2024/01/27 03:08:55;;;;;;;;;1.00;1.00;;;;;19.03;51.66;100851.14;34577;1268;21025;-70
2024/01/27 03:09:43;;;;;;;;;1.00;1.00;;;;;19.02;51.64;100851.23;34560;1268;20702;-70
2024/01/27 03:10:31;;;;;;;;;1.00;1.00;;;;;19.02;51.71;100851.50;34587;1252;20874;-70
2024/01/27 03:11:18;;;;;;;;;1.00;1.00;;;;;19.02;51.58;100851.13;34549;1268;19352;-70
2024/01/27 03:12:05;;;;;;;;;1.00;1.00;;;;;19.01;51.52;100845.80;34569;1268;19427;-70
2024/01/27 03:12:53;;;;;;;;;1.00;1.00;;;;;19.02;51.48;100849.98;34561;1268;19360;-70
2024/01/27 03:13:44;;;;;;;;;1.00;1.00;;;;;19.03;51.44;100850.48;34549;1268;19363;-70
2024/01/27 03:14:32;;;;;;;;;1.00;1.00;;;;;19.02;51.30;100848.63;34524;1269;20579;-70
2024/01/27 03:15:19;;;;;;;;;1.00;1.00;;;;;19.02;51.61;100855.25;34538;1253;22053;-70
2024/01/27 03:16:07;;;;;;;;;1.00;1.00;;;;;19.01;51.84;100852.86;34541;1268;20660;-70
2024/01/27 03:16:54;;;;;;;;;1.00;1.00;;;;;19.01;51.84;100850.90;34529;1254;21163;-70
2024/01/27 03:17:41;;;;;;;;;1.00;1.00;;;;;19.01;51.57;100851.27;34545;1252;20789;-70
2024/01/27 03:18:29;;;;;;;;;1.00;1.00;;;;;19.01;51.45;100848.12;34530;1268;20713;-69
2024/01/27 03:19:16;;;;;;;;;1.00;1.00;;;;;19.00;51.32;100848.60;34546;1260;19356;-70
2024/01/27 03:20:04;;;;;;;;;1.00;1.00;;;;;19.00;51.83;100849.09;34518;1268;20661;-70
2024/01/27 03:20:51;;;;;;;;;1.00;1.00;;;;;18.99;51.88;100845.02;34576;1252;19345;-70
2024/01/27 03:21:39;;;;;;;;;1.33;1.00;;;;;18.99;51.88;100849.04;34539;1253;22007;-70
2024/01/27 03:22:27;;;;;;;;;1.00;1.00;;;;;18.99;52.09;100844.20;34560;1252;20529;-70
2024/01/27 03:23:14;;;;;;;;;1.00;1.00;;;;;18.99;52.00;100840.39;34516;1268;20680;-70
2024/01/27 03:24:02;;;;;;;;;1.00;1.00;;;;;18.99;51.56;100844.41;34541;1268;20675;-70
2024/01/27 03:24:51;;;;;;;;;1.00;1.00;;;;;18.99;51.62;100844.73;34511;1268;20772;-70
2024/01/27 03:25:38;;;;;;;;;1.50;1.50;;;;;18.99;51.47;100843.16;34523;1268;21981;-70
2024/01/27 03:26:26;;;;;;;;;1.00;1.00;;;;;18.99;51.90;100843.81;34539;1260;20645;-70
2024/01/27 03:27:13;;;;;;;;;1.00;1.00;;;;;18.98;51.80;100846.30;34531;1268;20872;-70
2024/01/27 03:28:01;;;;;;;;;1.00;1.00;;;;;18.99;51.88;100845.71;34570;1252;20738;-70
2024/01/27 03:28:49;;;;;;;;;1.00;1.00;;;;;18.99;51.95;100843.48;34516;1268;19360;-70
2024/01/27 03:29:36;;;;;;;;;1.00;1.00;;;;;18.99;51.91;100848.43;34564;1253;20766;-70
2024/01/27 03:30:24;;;;;;;;;1.00;1.00;;;;;18.98;51.46;100849.45;34512;1266;20603;-70
2024/01/27 03:31:11;;;;;;;;;1.00;1.00;;;;;18.98;51.91;100851.36;34590;1254;22052;-70
2024/01/27 03:31:58;;;;;;;;;1.00;1.00;;;;;18.98;51.75;100851.78;34552;1266;21459;-70
2024/01/27 03:32:46;;;;;;;;;1.00;1.00;;;;;18.98;51.85;100849.61;34557;1267;21479;-70
2024/01/27 03:33:33;;;;;;;;;1.00;1.00;;;;;18.98;51.91;100849.40;34563;1251;20667;-70
2024/01/27 03:34:24;;;;;;;;;1.00;1.00;;;;;18.98;52.04;100848.81;34535;1251;19453;-70
2024/01/27 03:35:12;;;;;;;;;1.00;1.00;;;;;18.97;51.78;100845.05;34527;1267;21767;-70
2024/01/27 03:35:59;;;;;;;;;1.00;1.00;;;;;18.98;51.66;100848.85;34548;1267;19512;-70
2024/01/27 03:36:46;;;;;;;;;2.00;1.00;;;;;18.98;51.87;100846.02;34543;1267;19289;-70
2024/01/27 03:37:34;;;;;;;;;1.00;1.00;;;;;18.98;51.61;100846.25;34548;1267;20671;-70
2024/01/27 03:38:21;;;;;;;;;1.00;1.00;;;;;18.97;51.29;100851.67;34555;1267;20545;-70
2024/01/27 03:39:09;;;;;;;;;2.00;2.00;;;;;18.99;50.95;100847.67;34536;1266;20635;-70
2024/01/27 03:39:56;;;;;;;;;4.00;2.00;;;;;19.01;50.97;100852.41;34555;1267;20698;-70
2024/01/27 03:40:44;;;;;;;;;2.00;1.00;;;;;19.03;50.60;100848.58;34545;1267;20850;-70